createdAt,value
2022-09-23T00:00:24.810Z,8.02
2022-09-23T00:03:31.824Z,7.96
2022-09-23T00:06:34.313Z,7.95
2022-09-23T00:09:37.158Z,7.92
2022-09-23T00:12:39.667Z,7.94
2022-09-23T00:15:42.440Z,7.90
2022-09-23T00:18:45.580Z,7.87
2022-09-23T00:21:48.501Z,7.83
2022-09-23T00:24:51.057Z,7.79
2022-09-23T00:27:54.132Z,7.73
2022-09-23T00:30:56.671Z,7.72
2022-09-23T00:34:01.106Z,7.65
2022-09-23T00:37:03.767Z,7.64
2022-09-23T00:40:08.821Z,7.70
2022-09-23T00:43:15.186Z,7.78
2022-09-23T00:46:40.042Z,7.83
2022-09-23T00:49:43.197Z,7.77
2022-09-23T00:52:46.108Z,7.74
2022-09-23T00:55:52.526Z,7.78
2022-09-23T00:58:55.351Z,7.76
2022-09-23T01:01:59.139Z,7.75
2022-09-23T01:05:04.028Z,7.78
2022-09-23T01:08:07.763Z,7.76
2022-09-23T01:11:26.058Z,7.72
2022-09-23T01:14:41.195Z,7.66
2022-09-23T01:17:53.263Z,7.67
2022-09-23T01:21:16.715Z,7.61
2022-09-23T01:24:38.304Z,7.58
2022-09-23T01:27:41.316Z,7.51
2022-09-23T01:31:07.078Z,7.45
2022-09-23T01:34:24.295Z,7.43
2022-09-23T01:37:37.274Z,7.35
2022-09-23T01:41:17.423Z,7.35
2022-09-23T01:44:27.555Z,7.33
2022-09-23T01:47:35.616Z,7.33
2022-09-23T01:50:56.354Z,7.30
2022-09-23T01:54:25.598Z,7.24
2022-09-23T01:57:32.405Z,7.14
2022-09-23T02:00:40.863Z,7.15
2022-09-23T02:03:48.492Z,7.17
2022-09-23T02:07:02.141Z,7.20
2022-09-23T02:10:36.039Z,7.25
2022-09-23T02:13:50.321Z,7.10
2022-09-23T02:16:56.154Z,7.07
2022-09-23T02:20:02.317Z,7.04
2022-09-23T02:23:19.718Z,7.05
2022-09-23T02:26:35.194Z,7.03
2022-09-23T02:29:44.129Z,7.01
2022-09-23T02:33:04.198Z,7.01
2022-09-23T02:36:12.856Z,6.97
2022-09-23T02:39:17.515Z,6.95
2022-09-23T02:42:23.508Z,6.93
2022-09-23T02:45:26.019Z,6.91
2022-09-23T02:48:41.299Z,6.86
2022-09-23T02:51:44.020Z,6.87
2022-09-23T02:54:46.844Z,6.81
2022-09-23T02:57:49.432Z,6.77
2022-09-23T03:01:18.762Z,6.77
2022-09-23T03:04:40.162Z,6.75
2022-09-23T03:08:15.313Z,6.76
2022-09-23T03:11:18.155Z,6.68
2022-09-23T03:14:40.083Z,6.68
2022-09-23T03:17:51.961Z,6.68
2022-09-23T03:20:59.169Z,6.66
2022-09-23T03:24:05.059Z,6.65
2022-09-23T03:27:13.914Z,6.65
2022-09-23T03:30:18.194Z,6.67
2022-09-23T03:33:26.750Z,6.64
2022-09-23T03:36:51.599Z,6.61
2022-09-23T03:40:00.166Z,6.63
2022-09-23T03:43:04.496Z,6.61
2022-09-23T03:46:08.247Z,6.55
2022-09-23T03:49:15.833Z,6.58
2022-09-23T03:52:20.836Z,6.61
2022-09-23T03:55:23.387Z,6.63
2022-09-23T03:58:26.137Z,6.61
2022-09-23T04:01:29.774Z,6.57
2022-09-23T04:04:34.189Z,6.57
2022-09-23T04:07:39.598Z,6.54
2022-09-23T04:10:42.480Z,6.50
2022-09-23T04:13:44.983Z,6.40
2022-09-23T04:16:48.697Z,6.41
2022-09-23T04:19:51.224Z,6.43
2022-09-23T04:22:53.984Z,6.38
2022-09-23T04:25:56.497Z,6.37
2022-09-23T04:28:59.761Z,6.38
2022-09-23T04:32:02.519Z,6.36
2022-09-23T04:35:06.790Z,6.34
2022-09-23T04:38:12.658Z,6.27
2022-09-23T04:41:16.768Z,6.28
2022-09-23T04:44:20.280Z,6.25
2022-09-23T04:47:23.253Z,6.25
2022-09-23T04:50:26.431Z,6.19
2022-09-23T04:53:29.377Z,6.17
2022-09-23T04:56:32.793Z,6.13
2022-09-23T04:59:35.636Z,6.15
2022-09-23T05:02:45.522Z,6.17
2022-09-23T05:05:48.345Z,6.22
2022-09-23T05:08:52.840Z,6.24
2022-09-23T05:11:55.559Z,6.23
2022-09-23T05:14:58.061Z,6.30
2022-09-23T05:18:02.522Z,6.36
2022-09-23T05:21:05.200Z,6.41
2022-09-23T05:24:08.805Z,6.45
2022-09-23T05:27:11.403Z,6.50
2022-09-23T05:30:14.794Z,6.55
2022-09-23T05:33:17.289Z,6.59
2022-09-23T05:36:21.630Z,6.66
2022-09-23T05:39:24.159Z,6.62
2022-09-23T05:42:28.169Z,6.69
2022-09-23T05:45:32.139Z,6.75
2022-09-23T05:48:35.951Z,6.87
2022-09-23T05:51:38.492Z,6.82
2022-09-23T05:54:41.316Z,7.01
2022-09-23T05:57:43.864Z,7.11
2022-09-23T06:00:46.630Z,7.22
2022-09-23T06:03:49.653Z,7.35
2022-09-23T06:06:53.189Z,7.43
2022-09-23T06:09:56.011Z,7.58
2022-09-23T06:12:58.506Z,7.65
2022-09-23T06:16:02.425Z,7.75
2022-09-23T06:19:06.527Z,7.92
2022-09-23T06:22:10.879Z,8.02
2022-09-23T06:25:13.549Z,8.17
2022-09-23T06:28:16.426Z,8.48
2022-09-23T06:31:18.975Z,8.66
2022-09-23T06:34:21.901Z,8.89
2022-09-23T06:37:24.694Z,8.97
2022-09-23T06:40:27.508Z,9.05
2022-09-23T06:43:30.680Z,9.13
2022-09-23T06:46:33.595Z,9.44
2022-09-23T06:49:36.896Z,9.49
2022-09-23T06:52:39.691Z,9.61
2022-09-23T06:55:43.192Z,9.65
2022-09-23T06:58:46.259Z,9.88
2022-09-23T07:01:50.661Z,9.92
2022-09-23T07:04:57.092Z,10.10
2022-09-23T07:07:59.660Z,10.13
2022-09-23T07:11:05.470Z,10.28
2022-09-23T07:14:07.945Z,10.41
2022-09-23T07:17:12.513Z,10.53
2022-09-23T07:20:17.506Z,10.67
2022-09-23T07:23:20.622Z,10.76
2022-09-23T07:26:23.107Z,10.84
2022-09-23T07:29:26.032Z,11.06
2022-09-23T07:32:33.754Z,11.25
2022-09-23T07:35:42.503Z,11.38
2022-09-23T07:38:46.103Z,11.54
2022-09-23T07:41:49.334Z,11.73
2022-09-23T07:44:52.496Z,11.98
2022-09-23T07:47:55.570Z,12.08
2022-09-23T07:50:59.438Z,12.25
2022-09-23T07:54:02.359Z,12.40
2022-09-23T07:57:05.010Z,12.61
2022-09-23T08:00:09.227Z,12.79
2022-09-23T08:03:15.065Z,12.95
2022-09-23T08:06:17.859Z,13.14
2022-09-23T08:09:22.787Z,13.32
2022-09-23T08:12:25.574Z,13.51
2022-09-23T08:15:28.350Z,13.66
2022-09-23T08:18:31.349Z,13.78
2022-09-23T08:21:34.298Z,14.01
2022-09-23T08:24:37.064Z,14.18
2022-09-23T08:27:40.042Z,14.38
2022-09-23T08:30:44.775Z,14.53
2022-09-23T08:33:47.474Z,14.76
2022-09-23T08:36:52.315Z,14.86
2022-09-23T08:39:54.810Z,15.07
2022-09-23T08:42:57.637Z,15.22
2022-09-23T08:46:04.876Z,15.44
2022-09-23T08:49:12.415Z,15.62
2022-09-23T08:52:24.543Z,15.77
2022-09-23T08:55:34.587Z,15.89
2022-09-23T08:58:43.969Z,16.02
2022-09-23T09:01:52.735Z,16.14
2022-09-23T09:04:59.162Z,16.37
2022-09-23T09:08:03.744Z,16.41
2022-09-23T09:11:06.875Z,16.57
2022-09-23T09:14:30.710Z,16.65
2022-09-23T09:17:49.129Z,16.79
2022-09-23T09:21:09.277Z,16.83
2022-09-23T09:24:23.197Z,17.05
2022-09-23T09:27:26.041Z,17.05
2022-09-23T09:30:28.533Z,17.21
2022-09-23T09:34:03.045Z,17.33
2022-09-23T09:37:11.536Z,17.48
2022-09-23T09:40:17.153Z,17.61
2022-09-23T09:43:26.286Z,17.66
2022-09-23T09:46:34.175Z,17.81
2022-09-23T09:49:49.818Z,18.02
2022-09-23T09:52:58.179Z,18.04
2022-09-23T09:56:05.044Z,18.18
2022-09-23T09:59:11.427Z,18.37
2022-09-23T10:02:21.441Z,18.51
2022-09-23T10:05:32.978Z,18.49
2022-09-23T10:08:36.937Z,18.47
2022-09-23T10:11:40.672Z,18.65
2022-09-23T10:14:43.166Z,18.85
2022-09-23T10:17:50.046Z,18.95
2022-09-23T10:20:52.666Z,18.92
2022-09-23T10:23:58.204Z,18.77
2022-09-23T10:27:09.571Z,18.78
2022-09-23T10:30:15.322Z,18.66
2022-09-23T10:33:27.907Z,18.66
2022-09-23T10:36:32.620Z,18.53
2022-09-23T10:39:53.590Z,18.44
2022-09-23T10:43:46.312Z,18.41
2022-09-23T10:47:24.065Z,18.43
2022-09-23T10:50:33.154Z,18.19
2022-09-23T10:54:01.500Z,18.34
2022-09-23T10:57:34.170Z,18.47
2022-09-23T11:01:25.670Z,18.44
2022-09-23T11:04:51.588Z,18.54
2022-09-23T11:08:28.708Z,18.60
2022-09-23T11:11:50.047Z,18.73
2022-09-23T11:14:59.379Z,18.88
2022-09-23T11:18:17.044Z,18.99
2022-09-23T11:21:28.303Z,18.89
2022-09-23T11:24:36.672Z,19.05
2022-09-23T11:27:49.799Z,19.10
2022-09-23T11:31:10.000Z,19.11
2022-09-23T11:34:27.970Z,19.28
2022-09-23T11:37:36.219Z,19.39
2022-09-23T11:40:43.898Z,19.35
2022-09-23T11:43:53.354Z,19.24
2022-09-23T11:47:09.178Z,19.15
2022-09-23T11:50:20.985Z,19.10
2022-09-23T11:53:34.015Z,18.93
2022-09-23T11:56:45.609Z,18.90
2022-09-23T11:59:58.848Z,18.77
2022-09-23T12:03:17.985Z,18.72
2022-09-23T12:06:23.997Z,18.72
2022-09-23T12:09:57.274Z,18.64
2022-09-23T12:13:05.499Z,18.57
2022-09-23T12:16:40.414Z,18.57
2022-09-23T12:19:52.363Z,18.49
2022-09-23T12:23:26.124Z,18.42
2022-09-23T12:26:29.847Z,18.48
2022-09-23T12:29:33.373Z,18.44
2022-09-23T12:32:36.248Z,18.39
2022-09-23T12:35:42.050Z,18.33
2022-09-23T12:38:53.734Z,18.30
2022-09-23T12:42:19.749Z,18.25
2022-09-23T12:45:32.717Z,18.24
2022-09-23T12:48:59.946Z,18.15
2022-09-23T12:52:30.919Z,18.12
2022-09-23T12:55:33.406Z,18.11
2022-09-23T12:58:42.351Z,18.06
2022-09-23T13:01:45.088Z,17.96
2022-09-23T13:05:42.418Z,17.96
2022-09-23T13:08:46.017Z,17.76
2022-09-23T13:11:49.027Z,17.77
2022-09-23T13:14:54.100Z,17.74
2022-09-23T13:18:18.765Z,17.80
2022-09-23T13:21:51.367Z,17.79
2022-09-23T13:24:54.648Z,17.68
2022-09-23T13:28:00.722Z,17.32
2022-09-23T13:31:11.051Z,17.46
2022-09-23T13:34:15.982Z,17.51
2022-09-23T13:37:24.891Z,17.37
2022-09-23T13:40:28.893Z,17.46
2022-09-23T13:43:38.949Z,17.38
2022-09-23T13:46:53.538Z,17.47
2022-09-23T13:49:56.643Z,17.43
2022-09-23T13:53:07.134Z,17.47
2022-09-23T13:56:14.707Z,17.48
2022-09-23T13:59:23.978Z,17.46
2022-09-23T14:02:28.568Z,17.47
2022-09-23T14:05:34.815Z,17.46
2022-09-23T14:08:40.230Z,17.53
2022-09-23T14:11:43.684Z,17.60
2022-09-23T14:14:46.509Z,17.68
2022-09-23T14:18:14.226Z,17.69
2022-09-23T14:21:35.102Z,17.66
2022-09-23T14:24:38.496Z,17.70
2022-09-23T14:27:42.237Z,17.83
2022-09-23T14:30:48.032Z,17.90
2022-09-23T14:33:50.587Z,18.01
2022-09-23T14:37:12.113Z,18.11
2022-09-23T14:40:21.072Z,18.11
2022-09-23T14:43:28.042Z,18.11
2022-09-23T14:46:34.210Z,18.13
2022-09-23T14:49:36.976Z,18.11
2022-09-23T14:52:49.252Z,18.08
2022-09-23T14:55:54.252Z,18.10
2022-09-23T14:58:59.277Z,18.06
2022-09-23T15:02:24.276Z,18.06
2022-09-23T15:05:44.594Z,18.05
2022-09-23T15:08:48.729Z,17.90
2022-09-23T15:11:53.102Z,17.95
2022-09-23T15:14:56.759Z,18.02
2022-09-23T15:18:18.829Z,17.93
2022-09-23T15:21:23.247Z,17.97
2022-09-23T15:24:42.604Z,17.93
2022-09-23T15:28:11.142Z,17.75
2022-09-23T15:31:15.908Z,17.85
2022-09-23T15:34:21.736Z,17.81
2022-09-23T15:37:24.367Z,17.80
2022-09-23T15:40:34.893Z,17.70
2022-09-23T15:43:39.942Z,17.58
2022-09-23T15:46:47.130Z,17.56
2022-09-23T15:49:49.712Z,17.44
2022-09-23T15:52:52.444Z,17.31
2022-09-23T15:55:55.109Z,17.17
2022-09-23T15:58:58.106Z,17.17
2022-09-23T16:02:05.787Z,17.05
2022-09-23T16:05:26.619Z,16.91
2022-09-23T16:08:30.115Z,16.79
2022-09-23T16:11:32.965Z,16.74
2022-09-23T16:14:35.498Z,16.67
2022-09-23T16:17:38.283Z,16.61
2022-09-23T16:20:43.087Z,16.56
2022-09-23T16:23:47.751Z,16.48
2022-09-23T16:26:50.486Z,16.42
2022-09-23T16:29:53.654Z,16.38
2022-09-23T16:32:56.595Z,16.31
2022-09-23T16:36:02.706Z,16.26
2022-09-23T16:39:07.746Z,16.21
2022-09-23T16:42:10.936Z,16.19
2022-09-23T16:45:16.930Z,16.13
2022-09-23T16:48:19.900Z,16.15
2022-09-23T16:51:26.229Z,16.15
2022-09-23T16:54:28.999Z,16.10
2022-09-23T16:57:31.480Z,16.07
2022-09-23T17:00:53.100Z,16.03
2022-09-23T17:03:55.821Z,15.97
2022-09-23T17:06:59.180Z,15.93
2022-09-23T17:10:01.663Z,15.89
2022-09-23T17:13:04.737Z,15.87
2022-09-23T17:16:07.336Z,15.85
2022-09-23T17:19:11.853Z,15.83
2022-09-23T17:22:14.449Z,15.75
2022-09-23T17:25:17.329Z,15.53
2022-09-23T17:28:20.131Z,15.61
2022-09-23T17:31:24.688Z,15.57
2022-09-23T17:34:28.906Z,15.55
2022-09-23T17:37:32.522Z,15.52
2022-09-23T17:40:38.647Z,15.50
2022-09-23T17:43:41.977Z,15.43
2022-09-23T17:46:44.485Z,15.36
2022-09-23T17:49:49.875Z,15.29
2022-09-23T17:52:52.365Z,15.26
2022-09-23T17:55:59.271Z,15.21
2022-09-23T17:59:02.254Z,15.10
2022-09-23T18:02:05.092Z,15.05
2022-09-23T18:05:08.475Z,14.96
2022-09-23T18:08:10.953Z,14.89
2022-09-23T18:11:21.317Z,14.79
2022-09-23T18:14:24.068Z,14.70
2022-09-23T18:17:26.911Z,14.59
2022-09-23T18:20:29.671Z,14.48
2022-09-23T18:23:32.418Z,14.35
2022-09-23T18:26:35.065Z,14.27
2022-09-23T18:29:37.987Z,14.17
2022-09-23T18:32:40.447Z,14.08
2022-09-23T18:35:43.180Z,13.95
2022-09-23T18:38:46.183Z,13.84
2022-09-23T18:41:49.646Z,13.76
2022-09-23T18:44:56.289Z,13.75
2022-09-23T18:48:17.531Z,13.68
2022-09-23T18:51:21.922Z,13.57
2022-09-23T18:54:27.611Z,13.44
2022-09-23T18:57:30.143Z,13.32
2022-09-23T19:00:34.077Z,13.30
2022-09-23T19:03:37.012Z,13.25
2022-09-23T19:06:40.276Z,13.17
2022-09-23T19:09:42.747Z,13.09
2022-09-23T19:12:46.600Z,13.02
2022-09-23T19:15:49.171Z,12.93
2022-09-23T19:18:52.617Z,12.86
2022-09-23T19:21:55.130Z,12.82
2022-09-23T19:24:59.004Z,12.74
2022-09-23T19:28:02.491Z,12.64
2022-09-23T19:31:13.984Z,12.57
2022-09-23T19:34:18.459Z,12.51
2022-09-23T19:37:23.518Z,12.42
2022-09-23T19:40:26.185Z,12.34
2022-09-23T19:43:29.645Z,12.27
2022-09-23T19:46:34.869Z,12.17
2022-09-23T19:49:37.792Z,12.06
2022-09-23T19:52:42.900Z,11.99
2022-09-23T19:55:45.865Z,11.97
2022-09-23T19:58:55.320Z,11.88
2022-09-23T20:01:58.269Z,11.82
2022-09-23T20:05:01.274Z,11.76
2022-09-23T20:08:05.175Z,11.66
2022-09-23T20:11:11.592Z,11.56
2022-09-23T20:14:14.196Z,11.48
2022-09-23T20:17:21.742Z,11.39
2022-09-23T20:20:24.223Z,11.33
2022-09-23T20:23:28.448Z,11.27
2022-09-23T20:26:49.713Z,11.21
2022-09-23T20:29:52.814Z,11.16
2022-09-23T20:32:55.646Z,11.15
2022-09-23T20:36:00.925Z,11.08
2022-09-23T20:39:07.824Z,11.03
2022-09-23T20:42:10.616Z,10.96
2022-09-23T20:45:13.327Z,10.92
2022-09-23T20:48:16.150Z,10.87
2022-09-23T20:51:18.666Z,10.77
2022-09-23T20:54:22.124Z,10.70
2022-09-23T20:57:24.707Z,10.64
2022-09-23T21:00:27.550Z,10.58
2022-09-23T21:03:31.797Z,10.51
2022-09-23T21:06:35.789Z,10.43
2022-09-23T21:09:45.965Z,10.38
2022-09-23T21:12:52.982Z,10.34
2022-09-23T21:15:55.571Z,10.28
2022-09-23T21:18:58.777Z,10.20
2022-09-23T21:22:01.276Z,10.14
2022-09-23T21:25:26.825Z,10.09
2022-09-23T21:28:30.995Z,10.08
2022-09-23T21:31:36.100Z,10.01
2022-09-23T21:34:38.723Z,10.02
2022-09-23T21:37:41.526Z,9.94
2022-09-23T21:40:56.314Z,9.87
2022-09-23T21:44:00.355Z,9.80
2022-09-23T21:47:02.988Z,9.74
2022-09-23T21:50:06.478Z,9.69
2022-09-23T21:53:09.002Z,9.68
2022-09-23T21:56:19.616Z,9.62
2022-09-23T21:59:23.742Z,9.59
2022-09-23T22:02:27.474Z,9.50
2022-09-23T22:05:30.273Z,9.43
2022-09-23T22:08:36.990Z,9.41
2022-09-23T22:11:58.959Z,9.38
2022-09-23T22:15:01.533Z,9.33
2022-09-23T22:18:05.952Z,9.25
2022-09-23T22:21:08.432Z,9.19
2022-09-23T22:24:12.538Z,9.21
2022-09-23T22:27:18.142Z,9.18
2022-09-23T22:30:39.820Z,9.17
2022-09-23T22:33:42.262Z,9.10
2022-09-23T22:36:45.293Z,9.04
2022-09-23T22:39:48.149Z,8.99
2022-09-23T22:42:50.916Z,8.93
2022-09-23T22:45:53.397Z,8.87
2022-09-23T22:48:56.203Z,8.83
2022-09-23T22:51:59.452Z,8.80
2022-09-23T22:55:03.598Z,8.78
2022-09-23T22:58:27.574Z,8.71
2022-09-23T23:01:32.778Z,8.68
2022-09-23T23:04:37.217Z,8.66
2022-09-23T23:07:40.568Z,8.66
2022-09-23T23:10:43.771Z,8.58
2022-09-23T23:13:46.577Z,8.54
2022-09-23T23:16:49.615Z,8.54
2022-09-23T23:19:52.413Z,8.50
2022-09-23T23:22:54.948Z,8.40
2022-09-23T23:25:57.677Z,8.34
2022-09-23T23:29:01.747Z,8.33
2022-09-23T23:32:05.225Z,8.31
2022-09-23T23:35:08.784Z,8.31
2022-09-23T23:38:12.522Z,8.30
2022-09-23T23:41:17.251Z,8.23
2022-09-23T23:44:20.101Z,8.21
2022-09-23T23:47:23.374Z,8.08
2022-09-23T23:50:26.518Z,8.03
2022-09-23T23:53:31.003Z,7.96
2022-09-23T23:56:33.787Z,7.94
2022-09-23T23:59:36.331Z,7.89
